Wetterdaten: Mittwoch, 27.09.2017
Datum Zeit Temp. A. Temp. A. min Temp. A. max Feuchte A. Bod.Feucht 4 Luftdruck Regen Wind Richtung Richtung Sonnenschein ET Solar Taupunkt Windchill Windben Empfang
27.09.2017 00:00 11,4 C 11,4 C 11,8 C 91 % 0 cb 1023,8 hPa 0,0 l/m 0,0 km/h (0 Bft) N 360 0 min 0,000 mm 0 W/m 10,0 C 11,4 C 3,2 km/h (1 Bft) 100,00 %
27.09.2017 00:10 11,1 C 11,1 C 11,4 C 92 % 0 cb 1023,8 hPa 0,0 l/m 0,0 km/h (0 Bft) N 360 0 min 0,000 mm 0 W/m 9,8 C 11,1 C 1,6 km/h (1 Bft) 99,56 %
27.09.2017 00:20 11,0 C 10,9 C 11,1 C 93 % 0 cb 1023,7 hPa 0,0 l/m 1,6 km/h (1 Bft) N 360 0 min 0,000 mm 0 W/m 9,9 C 11,0 C 3,2 km/h (1 Bft) 100,00 %
27.09.2017 00:30 11,0 C 10,9 C 11,0 C 93 % 0 cb 1023,6 hPa 0,0 l/m 3,2 km/h (1 Bft) N 360 0 min 0,000 mm 0 W/m 9,9 C 11,0 C 4,8 km/h (1 Bft) 100,00 %
27.09.2017 00:40 11,2 C 11,0 C 11,2 C 93 % 0 cb 1023,6 hPa 0,0 l/m 3,2 km/h (1 Bft) N 360 0 min 0,000 mm 0 W/m 10,1 C 11,2 C 8,0 km/h (2 Bft) 100,00 %
27.09.2017 00:50 11,2 C 11,2 C 11,2 C 93 % 0 cb 1023,6 hPa 0,0 l/m 3,2 km/h (1 Bft) N 360 0 min 0,000 mm 0 W/m 10,1 C 11,2 C 6,4 km/h (2 Bft) 100,00 %
27.09.2017 01:00 11,2 C 11,1 C 11,2 C 93 % 0 cb 1023,6 hPa 0,0 l/m 1,6 km/h (1 Bft) N 360 0 min 0,000 mm 0 W/m 10,1 C 11,2 C 4,8 km/h (1 Bft) 100,00 %
27.09.2017 01:10 11,1 C 11,1 C 11,2 C 93 % 0 cb 1023,5 hPa 0,0 l/m 1,6 km/h (1 Bft) N 360 0 min 0,000 mm 0 W/m 10,0 C 11,1 C 6,4 km/h (2 Bft) 100,00 %
27.09.2017 01:20 10,8 C 10,8 C 11,1 C 92 % 0 cb 1023,5 hPa 0,0 l/m 0,0 km/h (0 Bft) N 360 0 min 0,000 mm 0 W/m 9,6 C 10,8 C 3,2 km/h (1 Bft) 100,00 %
27.09.2017 01:30 10,5 C 10,5 C 10,8 C 93 % 0 cb 1023,5 hPa 0,0 l/m 0,0 km/h (0 Bft) N 0 0 min 0,000 mm 0 W/m 9,4 C 10,5 C 0,0 km/h (0 Bft) 100,00 %
27.09.2017 01:40 10,6 C 10,5 C 10,6 C 94 % 0 cb 1023,4 hPa 0,0 l/m 1,6 km/h (1 Bft) N 360 0 min 0,000 mm 0 W/m 9,7 C 10,6 C 4,8 km/h (1 Bft) 87,72 %
27.09.2017 01:50 10,4 C 10,4 C 10,6 C 93 % 0 cb 1023,4 hPa 0,0 l/m 0,0 km/h (0 Bft) N 360 0 min 0,000 mm 0 W/m 9,3 C 10,4 C 3,2 km/h (1 Bft) 100,00 %
27.09.2017 02:00 10,3 C 10,3 C 10,4 C 93 % 0 cb 1023,4 hPa 0,0 l/m 0,0 km/h (0 Bft) N 360 0 min 0,000 mm 0 W/m 9,2 C 10,3 C 3,2 km/h (1 Bft) 100,00 %
27.09.2017 02:10 10,3 C 10,3 C 10,3 C 94 % 0 cb 1023,4 hPa 0,0 l/m 1,6 km/h (1 Bft) N-NO 22 0 min 0,000 mm 0 W/m 9,4 C 10,3 C 4,8 km/h (1 Bft) 100,00 %
27.09.2017 02:20 10,3 C 10,3 C 10,3 C 94 % 0 cb 1023,4 hPa 0,0 l/m 1,6 km/h (1 Bft) N 360 0 min 0,000 mm 0 W/m 9,4 C 10,3 C 4,8 km/h (1 Bft) 100,00 %
27.09.2017 02:30 10,3 C 10,3 C 10,3 C 94 % 0 cb 1023,4 hPa 0,0 l/m 0,0 km/h (0 Bft) N 0 0 min 0,000 mm 0 W/m 9,4 C 10,3 C 0,0 km/h (0 Bft) 99,56 %
27.09.2017 02:40 9,9 C 9,9 C 10,3 C 93 % 0 cb 1023,3 hPa 0,0 l/m 0,0 km/h (0 Bft) N 0 0 min 0,000 mm 0 W/m 8,8 C 9,9 C 0,0 km/h (0 Bft) 100,00 %
27.09.2017 02:50 10,2 C 9,9 C 10,2 C 95 % 0 cb 1023,3 hPa 0,0 l/m 1,6 km/h (1 Bft) N-NO 22 0 min 0,000 mm 0 W/m 9,4 C 10,2 C 6,4 km/h (2 Bft) 100,00 %
27.09.2017 03:00 10,4 C 10,2 C 10,5 C 94 % 0 cb 1023,3 hPa 0,0 l/m 1,6 km/h (1 Bft) N-NO 22 0 min 0,000 mm 0 W/m 9,5 C 10,4 C 6,4 km/h (2 Bft) 100,00 %
27.09.2017 03:10 9,9 C 9,9 C 10,4 C 92 % 0 cb 1023,4 hPa 0,0 l/m 0,0 km/h (0 Bft) N 0 0 min 0,000 mm 0 W/m 8,7 C 9,9 C 0,0 km/h (0 Bft) 100,00 %
27.09.2017 03:20 9,4 C 9,4 C 9,9 C 92 % 0 cb 1023,4 hPa 0,0 l/m 0,0 km/h (0 Bft) N 0 0 min 0,000 mm 0 W/m 8,2 C 9,4 C 0,0 km/h (0 Bft) 100,00 %
27.09.2017 03:30 9,0 C 9,0 C 9,4 C 93 % 0 cb 1023,3 hPa 0,0 l/m 0,0 km/h (0 Bft) N 0 0 min 0,000 mm 0 W/m 7,9 C 9,0 C 0,0 km/h (0 Bft) 100,00 %
27.09.2017 03:40 8,9 C 8,8 C 9,0 C 94 % 0 cb 1023,4 hPa 0,0 l/m 0,0 km/h (0 Bft) N 0 0 min 0,000 mm 0 W/m 8,0 C 8,9 C 0,0 km/h (0 Bft) 100,00 %
27.09.2017 03:50 9,0 C 8,9 C 9,0 C 95 % 0 cb 1023,4 hPa 0,0 l/m 0,0 km/h (0 Bft) N-NO 22 0 min 0,000 mm 0 W/m 8,2 C 9,0 C 1,6 km/h (1 Bft) 100,00 %
27.09.2017 04:00 8,9 C 8,9 C 9,0 C 95 % 0 cb 1023,5 hPa 0,0 l/m 0,0 km/h (0 Bft) N-NO 22 0 min 0,000 mm 0 W/m 8,1 C 8,9 C 1,6 km/h (1 Bft) 100,00 %
27.09.2017 04:10 9,0 C 8,8 C 9,0 C 95 % 0 cb 1023,4 hPa 0,0 l/m 1,6 km/h (1 Bft) N-NO 22 0 min 0,000 mm 0 W/m 8,2 C 9,0 C 4,8 km/h (1 Bft) 99,56 %
27.09.2017 04:20 9,2 C 9,0 C 9,2 C 96 % 0 cb 1023,5 hPa 0,0 l/m 1,6 km/h (1 Bft) N-NO 22 0 min 0,000 mm 0 W/m 8,6 C 9,2 C 4,8 km/h (1 Bft) 100,00 %
27.09.2017 04:30 9,1 C 9,1 C 9,3 C 95 % 0 cb 1023,5 hPa 0,0 l/m 1,6 km/h (1 Bft) NO 45 0 min 0,000 mm 0 W/m 8,3 C 9,1 C 3,2 km/h (1 Bft) 100,00 %
27.09.2017 04:40 8,5 C 8,5 C 9,1 C 94 % 0 cb 1023,5 hPa 0,0 l/m 0,0 km/h (0 Bft) NO 45 0 min 0,000 mm 0 W/m 7,6 C 8,5 C 1,6 km/h (1 Bft) 100,00 %
27.09.2017 04:50 8,4 C 8,4 C 8,5 C 95 % 0 cb 1023,5 hPa 0,2 l/m 0,0 km/h (0 Bft) NO 45 0 min 0,000 mm 0 W/m 7,6 C 8,4 C 3,2 km/h (1 Bft) 100,00 %
27.09.2017 05:00 8,6 C 8,4 C 8,6 C 96 % 0 cb 1023,5 hPa 0,0 l/m 1,6 km/h (1 Bft) NO 45 0 min 0,000 mm 0 W/m 8,0 C 8,6 C 3,2 km/h (1 Bft) 97,81 %
27.09.2017 05:10 9,0 C 8,6 C 9,0 C 97 % 0 cb 1023,5 hPa 0,0 l/m 0,0 km/h (0 Bft) NO 45 0 min 0,000 mm 0 W/m 8,5 C 9,0 C 4,8 km/h (1 Bft) 100,00 %
27.09.2017 05:20 8,8 C 8,8 C 9,0 C 96 % 0 cb 1023,6 hPa 0,0 l/m 0,0 km/h (0 Bft) N 0 0 min 0,000 mm 0 W/m 8,2 C 8,8 C 0,0 km/h (0 Bft) 100,00 %
27.09.2017 05:30 8,6 C 8,6 C 8,8 C 95 % 0 cb 1023,6 hPa 0,0 l/m 0,0 km/h (0 Bft) N 0 0 min 0,000 mm 0 W/m 7,8 C 8,6 C 0,0 km/h (0 Bft) 100,00 %
27.09.2017 05:40 8,5 C 8,4 C 8,6 C 96 % 0 cb 1023,6 hPa 0,0 l/m 0,0 km/h (0 Bft) NO 45 0 min 0,000 mm 0 W/m 7,9 C 8,5 C 3,2 km/h (1 Bft) 100,00 %
27.09.2017 05:50 8,7 C 8,4 C 8,7 C 96 % 0 cb 1023,6 hPa 0,0 l/m 0,0 km/h (0 Bft) NO 45 0 min 0,000 mm 0 W/m 8,1 C 8,7 C 3,2 km/h (1 Bft) 100,00 %
27.09.2017 06:00 9,3 C 8,7 C 9,3 C 97 % 0 cb 1023,5 hPa 0,0 l/m 3,2 km/h (1 Bft) N-NO 22 0 min 0,000 mm 0 W/m 8,8 C 9,3 C 6,4 km/h (2 Bft) 99,12 %
27.09.2017 06:10 9,3 C 9,3 C 9,3 C 96 % 0 cb 1023,6 hPa 0,0 l/m 0,0 km/h (0 Bft) N 360 0 min 0,000 mm 0 W/m 8,7 C 9,3 C 3,2 km/h (1 Bft) 100,00 %
27.09.2017 06:20 8,9 C 8,9 C 9,3 C 95 % 0 cb 1023,6 hPa 0,0 l/m 0,0 km/h (0 Bft) N 0 0 min 0,000 mm 0 W/m 8,1 C 8,9 C 0,0 km/h (0 Bft) 100,00 %
27.09.2017 06:30 8,2 C 8,2 C 8,9 C 94 % 0 cb 1023,6 hPa 0,0 l/m 0,0 km/h (0 Bft) N 0 0 min 0,000 mm 0 W/m 7,3 C 8,2 C 0,0 km/h (0 Bft) 100,00 %
27.09.2017 06:40 8,2 C 8,2 C 8,2 C 96 % 0 cb 1023,6 hPa 0,0 l/m 0,0 km/h (0 Bft) N 0 0 min 0,000 mm 0 W/m 7,6 C 8,2 C 0,0 km/h (0 Bft) 100,00 %
27.09.2017 06:50 8,8 C 8,2 C 8,8 C 97 % 0 cb 1023,6 hPa 0,0 l/m 0,0 km/h (0 Bft) N 0 0 min 0,000 mm 0 W/m 8,4 C 8,8 C 0,0 km/h (0 Bft) 100,00 %
27.09.2017 07:00 8,9 C 8,8 C 8,9 C 97 % 0 cb 1023,7 hPa 0,0 l/m 0,0 km/h (0 Bft) N 360 0 min 0,000 mm 0 W/m 8,4 C 8,9 C 4,8 km/h (1 Bft) 100,00 %
27.09.2017 07:10 8,7 C 8,7 C 8,9 C 96 % 0 cb 1023,6 hPa 0,0 l/m 0,0 km/h (0 Bft) N 360 0 min 0,000 mm 0 W/m 8,1 C 8,7 C 1,6 km/h (1 Bft) 100,00 %
27.09.2017 07:20 8,6 C 8,6 C 8,7 C 96 % 0 cb 1023,7 hPa 0,0 l/m 0,0 km/h (0 Bft) N 360 0 min 0,000 mm 0 W/m 8,0 C 8,6 C 1,6 km/h (1 Bft) 100,00 %
27.09.2017 07:30 8,3 C 8,3 C 8,6 C 96 % 0 cb 1023,7 hPa 0,0 l/m 0,0 km/h (0 Bft) N 360 0 min 0,000 mm 5 W/m 7,7 C 8,3 C 1,6 km/h (1 Bft) 100,00 %
27.09.2017 07:40 9,0 C 8,3 C 9,0 C 97 % 0 cb 1023,8 hPa 0,0 l/m 1,6 km/h (1 Bft) N 360 0 min 0,000 mm 9 W/m 8,5 C 9,0 C 4,8 km/h (1 Bft) 100,00 %
27.09.2017 07:50 8,5 C 8,5 C 9,0 C 95 % 0 cb 1023,8 hPa 0,0 l/m 0,0 km/h (0 Bft) N-NO 22 0 min 0,000 mm 14 W/m 7,7 C 8,5 C 1,6 km/h (1 Bft) 100,00 %
27.09.2017 08:00 8,0 C 8,0 C 8,5 C 95 % 0 cb 1023,9 hPa 0,0 l/m 0,0 km/h (0 Bft) N 0 0 min 0,000 mm 23 W/m 7,2 C 8,0 C 0,0 km/h (0 Bft) 100,00 %
27.09.2017 08:10 7,7 C 7,7 C 8,0 C 95 % 0 cb 1024,0 hPa 0,0 l/m 0,0 km/h (0 Bft) N 0 0 min 0,000 mm 32 W/m 7,0 C 7,7 C 0,0 km/h (0 Bft) 100,00 %
27.09.2017 08:20 7,6 C 7,5 C 7,7 C 96 % 0 cb 1024,1 hPa 0,0 l/m 0,0 km/h (0 Bft) N-NO 22 0 min 0,000 mm 39 W/m 7,0 C 7,6 C 1,6 km/h (1 Bft) 100,00 %
27.09.2017 08:30 8,3 C 7,6 C 8,3 C 97 % 0 cb 1024,2 hPa 0,0 l/m 1,6 km/h (1 Bft) N-NO 22 0 min 0,000 mm 47 W/m 7,9 C 8,3 C 4,8 km/h (1 Bft) 100,00 %
27.09.2017 08:40 9,0 C 8,3 C 9,0 C 97 % 0 cb 1024,3 hPa 0,0 l/m 0,0 km/h (0 Bft) N-NO 22 0 min 0,000 mm 58 W/m 8,5 C 9,0 C 3,2 km/h (1 Bft) 100,00 %
27.09.2017 08:50 9,4 C 9,1 C 9,4 C 97 % 0 cb 1024,4 hPa 0,0 l/m 0,0 km/h (0 Bft) NO 45 0 min 0,000 mm 67 W/m 8,9 C 9,4 C 4,8 km/h (1 Bft) 100,00 %
27.09.2017 09:00 10,1 C 9,4 C 10,1 C 97 % 0 cb 1024,4 hPa 0,0 l/m 3,2 km/h (1 Bft) N-NO 22 0 min 0,025 mm 142 W/m 9,6 C 10,1 C 9,7 km/h (2 Bft) 100,00 %
27.09.2017 09:10 10,2 C 10,1 C 10,2 C 97 % 0 cb 1024,4 hPa 0,0 l/m 6,4 km/h (2 Bft) N-NO 22 0 min 0,000 mm 146 W/m 9,7 C 10,2 C 12,9 km/h (3 Bft) 100,00 %
27.09.2017 09:20 10,3 C 10,2 C 10,3 C 97 % 0 cb 1024,4 hPa 0,0 l/m 6,4 km/h (2 Bft) N-NO 22 0 min 0,000 mm 142 W/m 9,8 C 10,3 C 11,3 km/h (2 Bft) 100,00 %
27.09.2017 09:30 10,3 C 10,3 C 10,4 C 97 % 0 cb 1024,5 hPa 0,0 l/m 6,4 km/h (2 Bft) N-NO 22 0 min 0,000 mm 146 W/m 9,8 C 10,3 C 16,1 km/h (3 Bft) 100,00 %
27.09.2017 09:40 10,3 C 10,2 C 10,3 C 97 % 0 cb 1024,6 hPa 0,0 l/m 8,0 km/h (2 Bft) N-NO 22 10 min 0,000 mm 188 W/m 9,8 C 10,3 C 16,1 km/h (3 Bft) 100,00 %
27.09.2017 09:50 10,6 C 10,3 C 10,6 C 97 % 0 cb 1024,7 hPa 0,0 l/m 4,8 km/h (1 Bft) N 360 10 min 0,000 mm 236 W/m 10,1 C 10,6 C 11,3 km/h (2 Bft) 100,00 %
27.09.2017 10:00 10,9 C 10,6 C 10,9 C 97 % 0 cb 1024,8 hPa 0,0 l/m 4,8 km/h (1 Bft) N-NO 22 10 min 0,076 mm 267 W/m 10,4 C 10,9 C 11,3 km/h (2 Bft) 100,00 %
27.09.2017 10:10 11,1 C 10,9 C 11,1 C 97 % 0 cb 1024,7 hPa 0,0 l/m 4,8 km/h (1 Bft) N 360 10 min 0,000 mm 255 W/m 10,6 C 11,1 C 12,9 km/h (3 Bft) 100,00 %
27.09.2017 10:20 11,2 C 11,1 C 11,2 C 97 % 0 cb 1024,8 hPa 0,0 l/m 3,2 km/h (1 Bft) N 360 10 min 0,000 mm 339 W/m 10,7 C 11,2 C 9,7 km/h (2 Bft) 100,00 %
27.09.2017 10:30 11,4 C 11,2 C 11,4 C 97 % 0 cb 1024,9 hPa 0,0 l/m 3,2 km/h (1 Bft) N 360 10 min 0,000 mm 304 W/m 10,9 C 11,4 C 8,0 km/h (2 Bft) 100,00 %
27.09.2017 10:40 12,1 C 11,4 C 12,1 C 97 % 0 cb 1024,7 hPa 0,0 l/m 3,2 km/h (1 Bft) N-NO 22 10 min 0,000 mm 394 W/m 11,6 C 12,1 C 8,0 km/h (2 Bft) 100,00 %
27.09.2017 10:50 12,1 C 12,1 C 12,2 C 95 % 0 cb 1024,8 hPa 0,0 l/m 4,8 km/h (1 Bft) N-NO 22 10 min 0,000 mm 315 W/m 11,3 C 12,1 C 11,3 km/h (2 Bft) 100,00 %
27.09.2017 11:00 12,4 C 12,1 C 12,4 C 95 % 0 cb 1024,8 hPa 0,0 l/m 4,8 km/h (1 Bft) NO 45 10 min 0,127 mm 471 W/m 11,6 C 12,4 C 11,3 km/h (2 Bft) 100,00 %
27.09.2017 11:10 12,4 C 12,4 C 12,4 C 94 % 0 cb 1024,8 hPa 0,0 l/m 4,8 km/h (1 Bft) N-NO 22 10 min 0,000 mm 448 W/m 11,5 C 12,4 C 9,7 km/h (2 Bft) 100,00 %
27.09.2017 11:20 12,6 C 12,4 C 12,6 C 94 % 0 cb 1024,7 hPa 0,0 l/m 3,2 km/h (1 Bft) N 360 10 min 0,000 mm 279 W/m 11,7 C 12,6 C 8,0 km/h (2 Bft) 100,00 %
27.09.2017 11:30 13,0 C 12,6 C 13,0 C 94 % 0 cb 1024,8 hPa 0,0 l/m 3,2 km/h (1 Bft) N-NW 337 10 min 0,000 mm 610 W/m 12,1 C 13,0 C 9,7 km/h (2 Bft) 97,81 %
27.09.2017 11:40 13,4 C 13,0 C 13,4 C 92 % 0 cb 1024,8 hPa 0,0 l/m 3,2 km/h (1 Bft) N 360 10 min 0,000 mm 561 W/m 12,1 C 13,4 C 8,0 km/h (2 Bft) 100,00 %
27.09.2017 11:50 13,8 C 13,5 C 13,8 C 92 % 0 cb 1024,6 hPa 0,0 l/m 3,2 km/h (1 Bft) N-NW 337 10 min 0,000 mm 390 W/m 12,5 C 13,8 C 6,4 km/h (2 Bft) 100,00 %
27.09.2017 12:00 14,2 C 13,9 C 14,2 C 90 % 0 cb 1024,6 hPa 0,0 l/m 3,2 km/h (1 Bft) N-NO 22 10 min 0,203 mm 566 W/m 12,6 C 14,2 C 6,4 km/h (2 Bft) 100,00 %
27.09.2017 12:10 14,7 C 14,2 C 14,7 C 89 % 0 cb 1024,6 hPa 0,0 l/m 1,6 km/h (1 Bft) N-NO 22 10 min 0,000 mm 563 W/m 12,9 C 14,7 C 6,4 km/h (2 Bft) 100,00 %
27.09.2017 12:20 15,2 C 14,7 C 15,2 C 87 % 0 cb 1024,5 hPa 0,0 l/m 1,6 km/h (1 Bft) N-NO 22 10 min 0,000 mm 561 W/m 13,0 C 15,2 C 6,4 km/h (2 Bft) 100,00 %
27.09.2017 12:30 15,8 C 15,2 C 15,8 C 87 % 0 cb 1024,4 hPa 0,0 l/m 1,6 km/h (1 Bft) NO 45 10 min 0,000 mm 568 W/m 13,6 C 15,8 C 6,4 km/h (2 Bft) 100,00 %
27.09.2017 12:40 16,4 C 15,8 C 16,4 C 81 % 0 cb 1024,3 hPa 0,0 l/m 1,6 km/h (1 Bft) O-NO 67 10 min 0,000 mm 573 W/m 13,1 C 16,4 C 6,4 km/h (2 Bft) 100,00 %
27.09.2017 12:50 16,9 C 16,4 C 16,9 C 82 % 0 cb 1024,3 hPa 0,0 l/m 1,6 km/h (1 Bft) O 90 10 min 0,000 mm 596 W/m 13,8 C 16,9 C 6,4 km/h (2 Bft) 100,00 %
27.09.2017 13:00 17,4 C 16,9 C 17,4 C 79 % 0 cb 1024,2 hPa 0,0 l/m 1,6 km/h (1 Bft) O-SO 112 10 min 0,305 mm 589 W/m 13,7 C 17,4 C 6,4 km/h (2 Bft) 100,00 %
27.09.2017 13:10 17,6 C 17,4 C 17,6 C 79 % 0 cb 1024,1 hPa 0,0 l/m 1,6 km/h (1 Bft) O-NO 67 10 min 0,000 mm 594 W/m 13,9 C 17,6 C 6,4 km/h (2 Bft) 99,56 %
27.09.2017 13:20 17,7 C 17,7 C 17,7 C 76 % 0 cb 1024,1 hPa 0,0 l/m 3,2 km/h (1 Bft) O-NO 67 10 min 0,000 mm 585 W/m 13,4 C 17,7 C 6,4 km/h (2 Bft) 100,00 %
27.09.2017 13:30 18,1 C 17,7 C 18,1 C 75 % 0 cb 1024,0 hPa 0,0 l/m 3,2 km/h (1 Bft) O-NO 67 10 min 0,000 mm 601 W/m 13,6 C 18,1 C 9,7 km/h (2 Bft) 98,68 %
27.09.2017 13:40 18,5 C 18,1 C 18,5 C 74 % 0 cb 1023,9 hPa 0,0 l/m 1,6 km/h (1 Bft) S 180 10 min 0,000 mm 621 W/m 13,8 C 18,5 C 6,4 km/h (2 Bft) 100,00 %
27.09.2017 13:50 18,8 C 18,6 C 18,8 C 72 % 0 cb 1023,8 hPa 0,0 l/m 1,6 km/h (1 Bft) O-SO 112 10 min 0,000 mm 599 W/m 13,6 C 18,8 C 8,0 km/h (2 Bft) 100,00 %
27.09.2017 14:00 18,8 C 18,7 C 18,8 C 73 % 0 cb 1023,7 hPa 0,0 l/m 1,6 km/h (1 Bft) O-NO 67 10 min 0,305 mm 701 W/m 13,9 C 18,8 C 6,4 km/h (2 Bft) 100,00 %
27.09.2017 14:10 19,3 C 18,8 C 19,3 C 71 % 0 cb 1023,6 hPa 0,0 l/m 1,6 km/h (1 Bft) O-NO 67 10 min 0,000 mm 675 W/m 13,9 C 19,3 C 6,4 km/h (2 Bft) 100,00 %
27.09.2017 14:20 19,8 C 19,4 C 19,8 C 68 % 0 cb 1023,6 hPa 0,0 l/m 3,2 km/h (1 Bft) O 90 10 min 0,000 mm 650 W/m 13,7 C 19,8 C 8,0 km/h (2 Bft) 100,00 %
27.09.2017 14:30 20,1 C 19,8 C 20,1 C 68 % 0 cb 1023,5 hPa 0,0 l/m 3,2 km/h (1 Bft) W-SW 247 10 min 0,000 mm 621 W/m 14,0 C 20,1 C 9,7 km/h (2 Bft) 100,00 %
27.09.2017 14:40 19,9 C 19,9 C 20,2 C 64 % 0 cb 1023,5 hPa 0,0 l/m 1,6 km/h (1 Bft) W-SW 247 10 min 0,000 mm 621 W/m 12,9 C 19,9 C 6,4 km/h (2 Bft) 100,00 %
27.09.2017 14:50 19,4 C 19,4 C 19,9 C 69 % 0 cb 1023,4 hPa 0,0 l/m 1,6 km/h (1 Bft) O 90 10 min 0,000 mm 512 W/m 13,6 C 19,4 C 4,8 km/h (1 Bft) 100,00 %
27.09.2017 15:00 18,8 C 18,8 C 19,4 C 69 % 0 cb 1023,4 hPa 0,0 l/m 1,6 km/h (1 Bft) N-NO 22 10 min 0,279 mm 605 W/m 13,0 C 18,8 C 6,4 km/h (2 Bft) 100,00 %
27.09.2017 15:10 19,3 C 18,7 C 19,3 C 66 % 0 cb 1023,3 hPa 0,0 l/m 1,6 km/h (1 Bft) N 360 10 min 0,000 mm 613 W/m 12,8 C 19,3 C 4,8 km/h (1 Bft) 100,00 %
27.09.2017 15:20 19,8 C 19,3 C 19,8 C 65 % 0 cb 1023,3 hPa 0,0 l/m 1,6 km/h (1 Bft) N 360 10 min 0,000 mm 612 W/m 13,0 C 19,8 C 6,4 km/h (2 Bft) 100,00 %
27.09.2017 15:30 20,4 C 19,8 C 20,4 C 62 % 0 cb 1023,4 hPa 0,0 l/m 3,2 km/h (1 Bft) S 180 10 min 0,000 mm 563 W/m 12,9 C 20,4 C 8,0 km/h (2 Bft) 100,00 %
27.09.2017 15:40 20,2 C 20,2 C 20,5 C 63 % 0 cb 1023,4 hPa 0,0 l/m 3,2 km/h (1 Bft) S 180 0 min 0,000 mm 123 W/m 12,9 C 20,2 C 8,0 km/h (2 Bft) 100,00 %
27.09.2017 15:50 19,4 C 19,4 C 20,2 C 62 % 0 cb 1023,4 hPa 0,0 l/m 3,2 km/h (1 Bft) S-SO 157 10 min 0,000 mm 179 W/m 11,9 C 19,4 C 8,0 km/h (2 Bft) 100,00 %
27.09.2017 16:00 19,2 C 19,2 C 19,4 C 64 % 0 cb 1023,3 hPa 0,0 l/m 3,2 km/h (1 Bft) S-SO 157 10 min 0,229 mm 425 W/m 12,2 C 19,2 C 6,4 km/h (2 Bft) 100,00 %
27.09.2017 16:10 19,6 C 19,2 C 19,6 C 64 % 0 cb 1023,2 hPa 0,0 l/m 1,6 km/h (1 Bft) SO 135 10 min 0,000 mm 401 W/m 12,6 C 19,6 C 6,4 km/h (2 Bft) 100,00 %
27.09.2017 16:20 19,9 C 19,6 C 19,9 C 64 % 0 cb 1023,1 hPa 0,0 l/m 1,6 km/h (1 Bft) SO 135 10 min 0,000 mm 399 W/m 12,9 C 19,9 C 8,0 km/h (2 Bft) 100,00 %
27.09.2017 16:30 20,0 C 19,9 C 20,1 C 62 % 0 cb 1023,1 hPa 0,0 l/m 1,6 km/h (1 Bft) SO 135 10 min 0,000 mm 371 W/m 12,5 C 20,0 C 4,8 km/h (1 Bft) 100,00 %
27.09.2017 16:40 20,1 C 20,0 C 20,1 C 61 % 0 cb 1023,1 hPa 0,0 l/m 1,6 km/h (1 Bft) SO 135 10 min 0,000 mm 341 W/m 12,3 C 20,1 C 4,8 km/h (1 Bft) 100,00 %
27.09.2017 16:50 20,1 C 20,1 C 20,2 C 60 % 0 cb 1023,1 hPa 0,0 l/m 1,6 km/h (1 Bft) O-SO 112 10 min 0,000 mm 323 W/m 12,1 C 20,1 C 6,4 km/h (2 Bft) 100,00 %
27.09.2017 17:00 20,1 C 20,1 C 20,1 C 59 % 0 cb 1023,1 hPa 0,0 l/m 1,6 km/h (1 Bft) O-SO 112 10 min 0,178 mm 304 W/m 11,8 C 20,1 C 4,8 km/h (1 Bft) 100,00 %
27.09.2017 17:10 20,2 C 20,1 C 20,2 C 60 % 0 cb 1023,1 hPa 0,0 l/m 1,6 km/h (1 Bft) O 90 10 min 0,000 mm 279 W/m 12,2 C 20,2 C 9,7 km/h (2 Bft) 100,00 %
27.09.2017 17:20 19,9 C 19,9 C 20,2 C 57 % 0 cb 1023,0 hPa 0,0 l/m 3,2 km/h (1 Bft) O 90 10 min 0,000 mm 257 W/m 11,1 C 19,9 C 8,0 km/h (2 Bft) 100,00 %
27.09.2017 17:30 20,2 C 19,8 C 20,2 C 58 % 0 cb 1023,0 hPa 0,0 l/m 1,6 km/h (1 Bft) S 180 10 min 0,000 mm 230 W/m 11,7 C 20,2 C 4,8 km/h (1 Bft) 100,00 %
27.09.2017 17:40 20,3 C 20,2 C 20,3 C 58 % 0 cb 1023,0 hPa 0,0 l/m 1,6 km/h (1 Bft) S 180 10 min 0,000 mm 209 W/m 11,8 C 20,3 C 4,8 km/h (1 Bft) 100,00 %
27.09.2017 17:50 20,2 C 20,2 C 20,3 C 57 % 0 cb 1023,0 hPa 0,0 l/m 1,6 km/h (1 Bft) S 180 10 min 0,000 mm 178 W/m 11,4 C 20,2 C 6,4 km/h (2 Bft) 100,00 %
27.09.2017 18:00 20,2 C 20,1 C 20,2 C 59 % 0 cb 1023,1 hPa 0,0 l/m 1,6 km/h (1 Bft) S 180 0 min 0,127 mm 123 W/m 11,9 C 20,2 C 6,4 km/h (2 Bft) 100,00 %
27.09.2017 18:10 19,8 C 19,8 C 20,2 C 61 % 0 cb 1023,1 hPa 0,0 l/m 0,0 km/h (0 Bft) S 180 0 min 0,000 mm 51 W/m 12,1 C 19,8 C 3,2 km/h (1 Bft) 100,00 %
27.09.2017 18:20 19,2 C 19,2 C 19,8 C 65 % 0 cb 1023,1 hPa 0,0 l/m 0,0 km/h (0 Bft) N 0 0 min 0,000 mm 28 W/m 12,5 C 19,2 C 0,0 km/h (0 Bft) 100,00 %
27.09.2017 18:30 18,3 C 18,3 C 19,2 C 68 % 0 cb 1023,2 hPa 0,0 l/m 0,0 km/h (0 Bft) N 0 0 min 0,000 mm 33 W/m 12,3 C 18,3 C 0,0 km/h (0 Bft) 100,00 %
27.09.2017 18:40 17,6 C 17,6 C 18,3 C 72 % 0 cb 1023,3 hPa 0,0 l/m 0,0 km/h (0 Bft) N 0 0 min 0,000 mm 33 W/m 12,5 C 17,6 C 0,0 km/h (0 Bft) 100,00 %
27.09.2017 18:50 16,9 C 16,9 C 17,6 C 72 % 0 cb 1023,3 hPa 0,0 l/m 0,0 km/h (0 Bft) S 180 0 min 0,000 mm 21 W/m 11,8 C 16,9 C 3,2 km/h (1 Bft) 100,00 %
27.09.2017 19:00 16,4 C 16,4 C 16,9 C 74 % 0 cb 1023,3 hPa 0,0 l/m 1,6 km/h (1 Bft) S-SO 157 0 min 0,025 mm 14 W/m 11,8 C 16,4 C 3,2 km/h (1 Bft) 100,00 %
27.09.2017 19:10 16,0 C 16,0 C 16,4 C 75 % 0 cb 1023,3 hPa 0,0 l/m 1,6 km/h (1 Bft) S-SO 157 0 min 0,000 mm 7 W/m 11,6 C 16,0 C 4,8 km/h (1 Bft) 100,00 %
27.09.2017 19:20 15,7 C 15,7 C 16,0 C 76 % 0 cb 1023,4 hPa 0,0 l/m 0,0 km/h (0 Bft) S-SO 157 0 min 0,000 mm 0 W/m 11,5 C 15,7 C 1,6 km/h (1 Bft) 100,00 %
27.09.2017 19:30 15,4 C 15,4 C 15,7 C 77 % 0 cb 1023,4 hPa 0,0 l/m 0,0 km/h (0 Bft) N 0 0 min 0,000 mm 0 W/m 11,4 C 15,4 C 0,0 km/h (0 Bft) 100,00 %
27.09.2017 19:40 15,3 C 15,3 C 15,4 C 77 % 0 cb 1023,4 hPa 0,0 l/m 0,0 km/h (0 Bft) N 0 0 min 0,000 mm 0 W/m 11,3 C 15,3 C 0,0 km/h (0 Bft) 100,00 %
27.09.2017 19:50 15,2 C 15,2 C 15,3 C 78 % 0 cb 1023,4 hPa 0,0 l/m 0,0 km/h (0 Bft) N 0 0 min 0,000 mm 0 W/m 11,4 C 15,2 C 0,0 km/h (0 Bft) 100,00 %
27.09.2017 20:00 15,1 C 15,1 C 15,2 C 79 % 0 cb 1023,4 hPa 0,0 l/m 0,0 km/h (0 Bft) N 0 0 min 0,000 mm 0 W/m 11,5 C 15,1 C 0,0 km/h (0 Bft) 100,00 %
27.09.2017 20:10 14,8 C 14,8 C 15,1 C 80 % 0 cb 1023,5 hPa 0,0 l/m 0,0 km/h (0 Bft) N 0 0 min 0,000 mm 0 W/m 11,4 C 14,8 C 0,0 km/h (0 Bft) 100,00 %
27.09.2017 20:20 14,6 C 14,6 C 14,8 C 81 % 0 cb 1023,6 hPa 0,0 l/m 0,0 km/h (0 Bft) N 0 0 min 0,000 mm 0 W/m 11,4 C 14,6 C 0,0 km/h (0 Bft) 100,00 %
27.09.2017 20:30 14,3 C 14,3 C 14,5 C 82 % 0 cb 1023,6 hPa 0,0 l/m 0,0 km/h (0 Bft) N 0 0 min 0,000 mm 0 W/m 11,3 C 14,3 C 0,0 km/h (0 Bft) 100,00 %
27.09.2017 20:40 14,1 C 14,1 C 14,3 C 83 % 0 cb 1023,7 hPa 0,0 l/m 0,0 km/h (0 Bft) S-SO 157 0 min 0,000 mm 0 W/m 11,3 C 14,1 C 3,2 km/h (1 Bft) 100,00 %
27.09.2017 20:50 13,9 C 13,9 C 14,1 C 83 % 0 cb 1023,8 hPa 0,0 l/m 0,0 km/h (0 Bft) S-SO 157 0 min 0,000 mm 0 W/m 11,1 C 13,9 C 3,2 km/h (1 Bft) 100,00 %
27.09.2017 21:00 13,8 C 13,8 C 13,9 C 84 % 0 cb 1023,9 hPa 0,0 l/m 0,0 km/h (0 Bft) N 0 0 min 0,025 mm 0 W/m 11,1 C 13,8 C 0,0 km/h (0 Bft) 100,00 %
27.09.2017 21:10 13,6 C 13,6 C 13,8 C 86 % 0 cb 1023,8 hPa 0,0 l/m 0,0 km/h (0 Bft) S-SO 157 0 min 0,000 mm 0 W/m 11,3 C 13,6 C 1,6 km/h (1 Bft) 100,00 %
27.09.2017 21:20 13,4 C 13,4 C 13,6 C 86 % 0 cb 1023,9 hPa 0,0 l/m 0,0 km/h (0 Bft) S-SO 157 0 min 0,000 mm 0 W/m 11,1 C 13,4 C 3,2 km/h (1 Bft) 100,00 %
27.09.2017 21:30 13,3 C 13,3 C 13,4 C 86 % 0 cb 1023,9 hPa 0,0 l/m 0,0 km/h (0 Bft) S-SO 157 0 min 0,000 mm 0 W/m 11,0 C 13,3 C 1,6 km/h (1 Bft) 100,00 %
27.09.2017 21:40 13,2 C 13,2 C 13,3 C 87 % 0 cb 1024,0 hPa 0,0 l/m 0,0 km/h (0 Bft) N 0 0 min 0,000 mm 0 W/m 11,1 C 13,2 C 0,0 km/h (0 Bft) 100,00 %
27.09.2017 21:50 13,0 C 13,0 C 13,2 C 87 % 0 cb 1024,1 hPa 0,0 l/m 0,0 km/h (0 Bft) S-SO 157 0 min 0,000 mm 0 W/m 10,9 C 13,0 C 1,6 km/h (1 Bft) 100,00 %
27.09.2017 22:00 13,1 C 13,0 C 13,1 C 87 % 0 cb 1024,1 hPa 0,0 l/m 1,6 km/h (1 Bft) S-SO 157 0 min 0,000 mm 0 W/m 11,0 C 13,1 C 3,2 km/h (1 Bft) 100,00 %
27.09.2017 22:10 13,3 C 13,1 C 13,4 C 86 % 0 cb 1024,1 hPa 0,0 l/m 1,6 km/h (1 Bft) SO 135 0 min 0,000 mm 0 W/m 11,0 C 13,3 C 4,8 km/h (1 Bft) 100,00 %
27.09.2017 22:20 13,6 C 13,3 C 13,6 C 85 % 0 cb 1024,1 hPa 0,0 l/m 1,6 km/h (1 Bft) SO 135 0 min 0,000 mm 0 W/m 11,1 C 13,6 C 4,8 km/h (1 Bft) 99,56 %
27.09.2017 22:30 13,6 C 13,6 C 13,7 C 85 % 0 cb 1024,1 hPa 0,0 l/m 0,0 km/h (0 Bft) SO 135 0 min 0,000 mm 0 W/m 11,1 C 13,6 C 3,2 km/h (1 Bft) 100,00 %
27.09.2017 22:40 13,4 C 13,4 C 13,6 C 86 % 0 cb 1024,1 hPa 0,0 l/m 0,0 km/h (0 Bft) N 0 0 min 0,000 mm 0 W/m 11,1 C 13,4 C 0,0 km/h (0 Bft) 100,00 %
27.09.2017 22:50 13,2 C 13,2 C 13,4 C 86 % 0 cb 1024,2 hPa 0,0 l/m 0,0 km/h (0 Bft) N 0 0 min 0,000 mm 0 W/m 10,9 C 13,2 C 0,0 km/h (0 Bft) 100,00 %
27.09.2017 23:00 12,9 C 12,9 C 13,2 C 88 % 0 cb 1024,1 hPa 0,0 l/m 0,0 km/h (0 Bft) SO 135 0 min 0,000 mm 0 W/m 11,0 C 12,9 C 1,6 km/h (1 Bft) 99,56 %
27.09.2017 23:10 12,8 C 12,8 C 12,9 C 89 % 0 cb 1024,1 hPa 0,0 l/m 0,0 km/h (0 Bft) SO 135 0 min 0,000 mm 0 W/m 11,0 C 12,8 C 4,8 km/h (1 Bft) 100,00 %
27.09.2017 23:20 12,8 C 12,8 C 12,8 C 88 % 0 cb 1024,0 hPa 0,0 l/m 1,6 km/h (1 Bft) SO 135 0 min 0,000 mm 0 W/m 10,9 C 12,8 C 3,2 km/h (1 Bft) 100,00 %
27.09.2017 23:30 12,7 C 12,7 C 12,8 C 89 % 0 cb 1024,0 hPa 0,0 l/m 0,0 km/h (0 Bft) SO 135 0 min 0,000 mm 0 W/m 10,9 C 12,7 C 3,2 km/h (1 Bft) 100,00 %
27.09.2017 23:40 12,6 C 12,6 C 12,7 C 89 % 0 cb 1024,0 hPa 0,0 l/m 0,0 km/h (0 Bft) SO 135 0 min 0,000 mm 0 W/m 10,8 C 12,6 C 3,2 km/h (1 Bft) 100,00 %
27.09.2017 23:50 12,4 C 12,4 C 12,6 C 90 % 0 cb 1024,0 hPa 0,0 l/m 0,0 km/h (0 Bft) N 0 0 min 0,000 mm 0 W/m 10,8 C 12,4 C 0,0 km/h (0 Bft) 100,00 %
_ Min-Zeit 08:20 08:20 08:20 17:20 00:00 17:20 - 00:00 - - - - - 08:10 08:20 01:30 01:40
Minimum _ 7,5 C 7,5 C 7,7 C 57 % 0 cb 1023,0 hPa - 0,0 km/h (0 Bft) - - - - - 7,0 C 7,6 C 0,0 km/h (0 Bft) 87,72 %
_ Max-Zeit 15:40 15:40 15:40 05:10 00:00 10:30 04:50 09:40 - - 09:40 13:00 14:00 14:30 15:30 09:30 00:00
Maximum _ 20,5 C 20,2 C 20,5 C 97 % 0 cb 1024,9 hPa 0,2 l/m 8,0 km/h
N-NO (2 Bft)
- - 10 min 0,305 mm 701 W/m 14,0 C 20,4 C 16,1 km/h
N (3 Bft)
100,00 %
Durchschnitt _ 13,4 C 13,2 C 13,5 C 85 % 0 cb 1023,8 hPa #0,2 l/m 1,4 km/h (1 Bft) N-NO - #8:10 h #1,904 mm 330 W/m 10,7 C 13,4 C 4,5 km/h (1 Bft) 99,85 %
Wetterstation Gdesweiler